createdAt,value
2022-12-18T00:01:43.824Z,16.60
2022-12-18T00:04:10.994Z,16.59
2022-12-18T00:06:38.100Z,16.62
2022-12-18T00:09:05.175Z,16.55
2022-12-18T00:11:32.278Z,16.55
2022-12-18T00:13:59.384Z,16.50
2022-12-18T00:16:26.604Z,16.48
2022-12-18T00:18:53.976Z,16.39
2022-12-18T00:21:21.080Z,16.41
2022-12-18T00:23:48.817Z,16.37
2022-12-18T00:26:16.278Z,16.35
2022-12-18T00:28:43.571Z,16.37
2022-12-18T00:31:10.730Z,16.18
2022-12-18T00:33:38.197Z,16.33
2022-12-18T00:36:05.512Z,16.14
2022-12-18T00:38:32.588Z,16.13
2022-12-18T00:40:59.663Z,16.12
2022-12-18T00:43:26.746Z,16.16
2022-12-18T00:45:53.881Z,16.12
2022-12-18T00:48:21.005Z,16.13
2022-12-18T00:50:48.083Z,16.07
2022-12-18T00:53:15.141Z,16.02
2022-12-18T00:55:42.291Z,16.00
2022-12-18T00:58:09.377Z,16.01
2022-12-18T01:00:36.496Z,16.00
2022-12-18T01:03:03.722Z,15.97
2022-12-18T01:05:30.900Z,16.02
2022-12-18T01:07:57.979Z,16.05
2022-12-18T01:10:25.049Z,16.02
2022-12-18T01:12:52.162Z,16.01
2022-12-18T01:15:19.208Z,15.95
2022-12-18T01:17:46.318Z,15.92
2022-12-18T01:20:13.378Z,15.88
2022-12-18T01:22:40.469Z,15.87
2022-12-18T01:25:07.527Z,15.88
2022-12-18T01:27:34.598Z,15.82
2022-12-18T01:30:01.680Z,15.78
2022-12-18T01:32:28.802Z,15.76
2022-12-18T01:34:55.884Z,15.78
2022-12-18T01:37:23.014Z,15.78
2022-12-18T01:39:50.967Z,15.79
2022-12-18T01:42:18.048Z,15.80
2022-12-18T01:44:45.121Z,15.77
2022-12-18T01:47:12.187Z,15.70
2022-12-18T01:49:39.299Z,15.71
2022-12-18T01:52:06.366Z,15.70
2022-12-18T01:54:33.430Z,15.66
2022-12-18T01:57:01.940Z,15.73
2022-12-18T01:59:29.018Z,15.70
2022-12-18T02:01:56.205Z,15.66
2022-12-18T02:04:23.621Z,15.64
2022-12-18T02:06:50.714Z,15.65
2022-12-18T02:09:17.985Z,15.64
2022-12-18T02:11:46.159Z,15.57
2022-12-18T02:14:13.225Z,15.61
2022-12-18T02:16:40.379Z,15.60
2022-12-18T02:19:07.491Z,15.55
2022-12-18T02:21:34.563Z,15.53
2022-12-18T02:24:01.613Z,15.52
2022-12-18T02:26:28.693Z,15.53
2022-12-18T02:28:55.822Z,15.49
2022-12-18T02:31:22.902Z,15.46
2022-12-18T02:33:49.998Z,15.47
2022-12-18T02:36:17.122Z,15.47
2022-12-18T02:38:44.200Z,15.48
2022-12-18T02:41:11.264Z,15.45
2022-12-18T02:43:38.826Z,15.41
2022-12-18T02:46:06.150Z,15.38
2022-12-18T02:48:33.273Z,15.34
2022-12-18T02:51:00.339Z,15.34
2022-12-18T02:53:27.409Z,15.28
2022-12-18T02:55:54.522Z,15.33
2022-12-18T02:58:21.593Z,15.33
2022-12-18T03:00:48.689Z,15.31
2022-12-18T03:03:15.789Z,15.29
2022-12-18T03:05:42.882Z,15.31
2022-12-18T03:08:09.941Z,15.29
2022-12-18T03:10:37.018Z,15.28
2022-12-18T03:13:04.112Z,15.23
2022-12-18T03:15:31.183Z,15.26
2022-12-18T03:17:58.301Z,15.21
2022-12-18T03:20:25.572Z,15.24
2022-12-18T03:22:52.916Z,15.23
2022-12-18T03:25:20.110Z,15.11
2022-12-18T03:27:47.187Z,15.17
2022-12-18T03:30:14.266Z,15.14
2022-12-18T03:32:41.652Z,15.21
2022-12-18T03:35:08.813Z,15.12
2022-12-18T03:37:36.317Z,15.05
2022-12-18T03:40:03.381Z,15.06
2022-12-18T03:42:30.668Z,15.03
2022-12-18T03:44:57.722Z,15.04
2022-12-18T03:47:24.782Z,15.03
2022-12-18T03:49:51.892Z,15.04
2022-12-18T03:52:18.949Z,15.01
2022-12-18T03:54:46.001Z,14.97
2022-12-18T03:57:13.067Z,14.96
2022-12-18T03:59:40.156Z,14.96
2022-12-18T04:02:07.427Z,14.94
2022-12-18T04:04:34.557Z,14.94
2022-12-18T04:07:01.619Z,14.94
2022-12-18T04:09:28.676Z,14.95
2022-12-18T04:11:55.730Z,14.94
2022-12-18T04:14:22.832Z,14.94
2022-12-18T04:16:49.881Z,14.90
2022-12-18T04:19:16.958Z,14.88
2022-12-18T04:21:44.367Z,14.89
2022-12-18T04:24:11.671Z,14.85
2022-12-18T04:26:39.334Z,14.85
2022-12-18T04:29:06.487Z,14.82
2022-12-18T04:31:33.645Z,14.80
2022-12-18T04:34:00.865Z,14.79
2022-12-18T04:36:28.399Z,14.80
2022-12-18T04:38:55.463Z,14.79
2022-12-18T04:41:22.669Z,14.79
2022-12-18T04:43:49.722Z,14.77
2022-12-18T04:46:16.807Z,14.77
2022-12-18T04:48:43.922Z,14.77
2022-12-18T04:51:10.973Z,14.75
2022-12-18T04:53:38.477Z,14.74
2022-12-18T04:56:05.782Z,14.70
2022-12-18T04:58:32.860Z,14.72
2022-12-18T05:00:59.939Z,14.72
2022-12-18T05:03:27.106Z,14.71
2022-12-18T05:05:54.225Z,14.70
2022-12-18T05:08:21.306Z,14.68
2022-12-18T05:10:48.365Z,14.67
2022-12-18T05:13:15.412Z,14.67
2022-12-18T05:15:42.920Z,14.66
2022-12-18T05:18:10.114Z,14.68
2022-12-18T05:20:37.171Z,14.65
2022-12-18T05:23:04.348Z,14.67
2022-12-18T05:25:31.440Z,14.66
2022-12-18T05:27:58.716Z,14.62
2022-12-18T05:30:25.960Z,14.61
2022-12-18T05:32:53.026Z,14.56
2022-12-18T05:35:20.665Z,14.56
2022-12-18T05:37:47.736Z,14.56
2022-12-18T05:40:14.815Z,14.58
2022-12-18T05:42:42.041Z,14.54
2022-12-18T05:45:09.107Z,14.56
2022-12-18T05:47:36.220Z,14.58
2022-12-18T05:50:03.281Z,14.52
2022-12-18T05:52:30.431Z,14.56
2022-12-18T05:54:57.609Z,14.50
2022-12-18T05:57:24.679Z,14.53
2022-12-18T05:59:51.797Z,14.50
2022-12-18T06:02:19.073Z,14.49
2022-12-18T06:04:46.225Z,14.46
2022-12-18T06:07:13.782Z,14.49
2022-12-18T06:09:41.016Z,14.50
2022-12-18T06:12:08.068Z,14.47
2022-12-18T06:14:35.133Z,14.52
2022-12-18T06:17:02.314Z,14.51
2022-12-18T06:19:29.368Z,14.46
2022-12-18T06:21:58.755Z,14.46
2022-12-18T06:24:25.808Z,14.49
2022-12-18T06:26:53.254Z,14.47
2022-12-18T06:29:20.326Z,14.46
2022-12-18T06:31:47.460Z,14.47
2022-12-18T06:34:14.548Z,14.47
2022-12-18T06:36:41.611Z,14.45
2022-12-18T06:39:08.670Z,14.46
2022-12-18T06:41:36.461Z,14.44
2022-12-18T06:44:04.304Z,14.44
2022-12-18T06:46:31.429Z,14.45
2022-12-18T06:48:58.490Z,14.43
2022-12-18T06:51:25.575Z,14.43
2022-12-18T06:53:52.626Z,14.39
2022-12-18T06:56:19.692Z,14.39
2022-12-18T06:58:46.765Z,14.39
2022-12-18T07:01:13.956Z,14.43
2022-12-18T07:03:41.567Z,14.42
2022-12-18T07:06:09.002Z,14.39
2022-12-18T07:08:36.103Z,14.40
2022-12-18T07:11:03.164Z,14.39
2022-12-18T07:13:30.224Z,14.40
2022-12-18T07:15:57.317Z,14.38
2022-12-18T07:18:24.447Z,14.34
2022-12-18T07:20:51.549Z,14.34
2022-12-18T07:23:18.620Z,14.36
2022-12-18T07:25:45.865Z,14.37
2022-12-18T07:28:17.341Z,14.38
2022-12-18T07:30:44.772Z,14.38
2022-12-18T07:33:11.941Z,14.32
2022-12-18T07:35:39.132Z,14.34
2022-12-18T07:38:06.182Z,14.33
2022-12-18T07:40:33.268Z,14.36
2022-12-18T07:43:00.322Z,14.36
2022-12-18T07:45:27.415Z,14.38
2022-12-18T07:47:54.545Z,14.38
2022-12-18T07:50:21.598Z,14.43
2022-12-18T07:52:48.672Z,14.44
2022-12-18T07:55:15.966Z,14.47
2022-12-18T07:57:51.949Z,14.50
2022-12-18T08:00:21.351Z,14.52
2022-12-18T08:02:48.786Z,14.57
2022-12-18T08:05:15.993Z,14.55
2022-12-18T08:07:43.056Z,14.58
2022-12-18T08:10:10.109Z,14.61
2022-12-18T08:12:37.168Z,14.64
2022-12-18T08:15:04.222Z,14.61
2022-12-18T08:17:31.998Z,14.67
2022-12-18T08:19:59.093Z,14.68
2022-12-18T08:22:26.335Z,14.67
2022-12-18T08:24:53.401Z,14.68
2022-12-18T08:27:29.414Z,14.68
2022-12-18T08:29:57.106Z,14.70
2022-12-18T08:32:24.222Z,14.71
2022-12-18T08:34:51.493Z,14.73
2022-12-18T08:37:18.623Z,14.71
2022-12-18T08:39:45.782Z,14.71
2022-12-18T08:42:31.736Z,14.74
2022-12-18T08:44:58.822Z,14.75
2022-12-18T08:47:26.975Z,14.77
2022-12-18T08:49:54.049Z,14.78
2022-12-18T08:52:21.112Z,14.78
2022-12-18T08:54:48.171Z,14.80
2022-12-18T08:57:15.261Z,14.81
2022-12-18T08:59:42.343Z,14.80
2022-12-18T09:02:09.591Z,14.87
2022-12-18T09:04:36.810Z,14.87
2022-12-18T09:07:03.870Z,14.88
2022-12-18T09:09:30.941Z,14.89
2022-12-18T09:11:57.999Z,14.89
2022-12-18T09:14:25.055Z,14.91
2022-12-18T09:16:52.187Z,14.92
2022-12-18T09:19:19.294Z,14.89
2022-12-18T09:21:48.447Z,14.90
2022-12-18T09:24:15.778Z,14.91
2022-12-18T09:26:43.878Z,14.95
2022-12-18T09:29:14.507Z,14.95
2022-12-18T09:31:41.910Z,14.94
2022-12-18T09:34:09.006Z,14.94
2022-12-18T09:36:36.084Z,14.93
2022-12-18T09:39:07.821Z,14.97
2022-12-18T09:41:35.822Z,14.95
2022-12-18T09:44:02.894Z,15.00
2022-12-18T09:46:30.131Z,15.01
2022-12-18T09:48:57.257Z,15.01
2022-12-18T09:51:24.313Z,15.03
2022-12-18T09:53:51.371Z,15.01
2022-12-18T09:56:18.586Z,15.03
2022-12-18T09:58:45.977Z,15.01
2022-12-18T10:01:13.101Z,14.94
2022-12-18T10:03:40.328Z,15.06
2022-12-18T10:06:07.449Z,14.94
2022-12-18T10:08:34.524Z,14.94
2022-12-18T10:11:01.581Z,15.10
2022-12-18T10:13:28.708Z,15.10
2022-12-18T10:15:55.886Z,15.01
2022-12-18T10:18:23.147Z,15.01
2022-12-18T10:20:50.333Z,15.05
2022-12-18T10:23:17.462Z,15.11
2022-12-18T10:25:44.626Z,15.10
2022-12-18T10:28:11.777Z,15.11
2022-12-18T10:30:38.890Z,15.16
2022-12-18T10:33:06.034Z,15.14
2022-12-18T10:35:33.158Z,15.16
2022-12-18T10:38:00.239Z,15.13
2022-12-18T10:40:27.524Z,15.18
2022-12-18T10:42:54.623Z,15.23
2022-12-18T10:45:21.755Z,15.18
2022-12-18T10:47:49.373Z,15.25
2022-12-18T10:50:16.838Z,15.21
2022-12-18T10:52:47.833Z,15.21
2022-12-18T10:55:15.301Z,15.18
2022-12-18T10:57:42.632Z,15.28
2022-12-18T11:00:09.821Z,15.17
2022-12-18T11:02:37.156Z,15.25
2022-12-18T11:05:04.468Z,15.25
2022-12-18T11:07:31.649Z,15.29
2022-12-18T11:09:58.981Z,15.26
2022-12-18T11:12:26.124Z,15.35
2022-12-18T11:14:53.225Z,15.27
2022-12-18T11:17:27.426Z,15.27
2022-12-18T11:19:55.165Z,15.24
2022-12-18T11:22:22.460Z,15.30
2022-12-18T11:25:02.409Z,15.29
2022-12-18T11:27:36.699Z,15.40
2022-12-18T11:30:03.794Z,15.39
2022-12-18T11:32:31.109Z,15.38
2022-12-18T11:34:59.285Z,15.33
2022-12-18T11:37:26.783Z,15.35
2022-12-18T11:39:54.468Z,15.33
2022-12-18T11:42:21.543Z,15.37
2022-12-18T11:44:48.675Z,15.38
2022-12-18T11:47:15.790Z,15.35
2022-12-18T11:49:47.246Z,15.39
2022-12-18T11:52:14.341Z,15.36
2022-12-18T11:54:41.552Z,15.33
2022-12-18T11:57:08.721Z,15.33
2022-12-18T11:59:35.841Z,15.42
2022-12-18T12:02:02.994Z,15.38
2022-12-18T12:04:30.591Z,15.42
2022-12-18T12:07:02.926Z,15.41
2022-12-18T12:09:30.460Z,15.41
2022-12-18T12:11:57.649Z,15.48
2022-12-18T12:14:24.774Z,15.45
2022-12-18T12:16:51.878Z,15.44
2022-12-18T12:19:19.002Z,15.47
2022-12-18T12:21:46.086Z,15.47
2022-12-18T12:24:13.171Z,15.50
2022-12-18T12:26:40.277Z,15.47
2022-12-18T12:29:10.514Z,15.53
2022-12-18T12:31:38.151Z,15.58
2022-12-18T12:34:05.413Z,15.54
2022-12-18T12:36:33.901Z,15.57
2022-12-18T12:39:01.072Z,15.59
2022-12-18T12:41:46.998Z,15.55
2022-12-18T12:44:14.210Z,15.58
2022-12-18T12:46:41.479Z,15.56
2022-12-18T12:49:10.775Z,15.60
2022-12-18T12:51:38.138Z,15.65
2022-12-18T12:54:05.608Z,15.62
2022-12-18T12:56:33.801Z,15.59
2022-12-18T12:59:00.949Z,15.62
2022-12-18T13:01:29.008Z,15.60
2022-12-18T13:03:56.334Z,15.59
2022-12-18T13:06:23.488Z,15.64
2022-12-18T13:08:51.006Z,15.62
2022-12-18T13:11:36.880Z,15.63
2022-12-18T13:14:04.480Z,15.53
2022-12-18T13:16:31.619Z,15.48
2022-12-18T13:18:59.816Z,15.57
2022-12-18T13:21:28.110Z,15.55
2022-12-18T13:23:55.225Z,15.55
2022-12-18T13:26:28.792Z,15.56
2022-12-18T13:28:56.299Z,15.58
2022-12-18T13:31:23.414Z,15.58
2022-12-18T13:34:24.643Z,15.60
2022-12-18T13:36:37.724Z,15.64
2022-12-18T13:39:04.831Z,15.58
2022-12-18T13:41:31.946Z,15.56
2022-12-18T13:43:59.121Z,15.62
2022-12-18T13:46:26.784Z,15.52
2022-12-18T13:48:53.970Z,15.64
2022-12-18T13:51:21.184Z,15.61
2022-12-18T13:53:48.880Z,15.61
2022-12-18T13:56:15.969Z,15.70
2022-12-18T13:58:43.565Z,15.64
2022-12-18T14:01:10.961Z,15.68
2022-12-18T14:03:38.632Z,15.67
2022-12-18T14:06:05.831Z,15.64
2022-12-18T14:08:33.388Z,15.65
2022-12-18T14:11:00.616Z,15.67
2022-12-18T14:13:27.920Z,15.65
2022-12-18T14:15:55.020Z,15.66
2022-12-18T14:18:22.532Z,15.68
2022-12-18T14:20:52.969Z,15.65
2022-12-18T14:23:20.466Z,15.66
2022-12-18T14:25:48.067Z,15.65
2022-12-18T14:28:15.226Z,15.67
2022-12-18T14:30:42.409Z,15.70
2022-12-18T14:33:09.553Z,15.71
2022-12-18T14:35:43.131Z,15.70
2022-12-18T14:38:17.127Z,15.70
2022-12-18T14:40:44.227Z,15.68
2022-12-18T14:43:11.321Z,15.69
2022-12-18T14:45:43.070Z,15.66
2022-12-18T14:48:10.785Z,15.68
2022-12-18T14:50:40.049Z,15.69
2022-12-18T14:53:07.174Z,15.69
2022-12-18T14:55:34.256Z,15.70
2022-12-18T14:58:01.359Z,15.67
2022-12-18T15:00:28.527Z,15.68
2022-12-18T15:02:55.811Z,15.64
2022-12-18T15:05:23.072Z,15.70
2022-12-18T15:07:50.379Z,15.69
2022-12-18T15:10:17.828Z,15.61
2022-12-18T15:12:44.932Z,15.59
2022-12-18T15:15:12.024Z,15.57
2022-12-18T15:17:39.137Z,15.63
2022-12-18T15:20:06.254Z,15.62
2022-12-18T15:22:33.341Z,15.62
2022-12-18T15:25:00.570Z,15.59
2022-12-18T15:27:27.793Z,15.57
2022-12-18T15:29:54.884Z,15.58
2022-12-18T15:32:23.146Z,15.55
2022-12-18T15:34:50.253Z,15.58
2022-12-18T15:37:17.355Z,15.51
2022-12-18T15:39:44.462Z,15.52
2022-12-18T15:42:30.453Z,15.49
2022-12-18T15:44:57.604Z,15.50
2022-12-18T15:47:25.120Z,15.47
2022-12-18T15:49:52.211Z,15.46
2022-12-18T15:52:27.096Z,15.45
2022-12-18T15:55:13.251Z,15.46
2022-12-18T15:57:40.407Z,15.42
2022-12-18T16:00:07.498Z,15.43
2022-12-18T16:02:34.783Z,15.47
2022-12-18T16:05:02.173Z,15.45
2022-12-18T16:07:30.903Z,15.44
2022-12-18T16:09:59.090Z,15.42
2022-12-18T16:12:28.789Z,15.48
2022-12-18T16:14:55.877Z,15.47
2022-12-18T16:17:22.960Z,15.38
2022-12-18T16:19:50.157Z,15.31
2022-12-18T16:22:17.214Z,15.33
2022-12-18T16:24:44.465Z,15.38
2022-12-18T16:27:11.572Z,15.40
2022-12-18T16:29:38.627Z,15.37
2022-12-18T16:32:05.713Z,15.39
2022-12-18T16:34:35.399Z,15.35
2022-12-18T16:37:05.513Z,15.41
2022-12-18T16:39:34.207Z,15.38
2022-12-18T16:42:02.661Z,15.38
2022-12-18T16:44:32.960Z,15.38
2022-12-18T16:47:02.901Z,15.36
2022-12-18T16:49:30.495Z,15.36
2022-12-18T16:51:57.663Z,15.42
2022-12-18T16:54:25.003Z,15.38
2022-12-18T16:56:52.208Z,15.43
2022-12-18T16:59:19.317Z,15.41
2022-12-18T17:01:47.393Z,15.35
2022-12-18T17:04:14.707Z,15.31
2022-12-18T17:06:41.793Z,15.37
2022-12-18T17:09:09.227Z,15.37
2022-12-18T17:11:36.368Z,15.34
2022-12-18T17:14:03.437Z,15.38
2022-12-18T17:16:30.594Z,15.39
2022-12-18T17:18:58.959Z,15.42
2022-12-18T17:21:26.642Z,15.36
2022-12-18T17:23:53.741Z,15.39
2022-12-18T17:26:20.832Z,15.32
2022-12-18T17:28:48.201Z,15.35
2022-12-18T17:31:15.354Z,15.38
2022-12-18T17:33:43.104Z,15.38
2022-12-18T17:36:10.615Z,15.37
2022-12-18T17:38:37.851Z,15.35
2022-12-18T17:41:04.942Z,15.37
2022-12-18T17:43:32.081Z,15.35
2022-12-18T17:45:59.217Z,15.36
2022-12-18T17:48:27.116Z,15.35
2022-12-18T17:50:54.800Z,15.38
2022-12-18T17:53:21.903Z,15.38
2022-12-18T17:55:49.023Z,15.42
2022-12-18T17:58:16.108Z,15.46
2022-12-18T18:00:43.237Z,15.48
2022-12-18T18:03:10.628Z,15.45
2022-12-18T18:05:37.875Z,15.58
2022-12-18T18:08:04.989Z,15.61
2022-12-18T18:10:33.290Z,15.58
2022-12-18T18:13:21.063Z,15.52
2022-12-18T18:15:48.192Z,15.55
2022-12-18T18:18:15.335Z,15.53
2022-12-18T18:20:44.376Z,15.49
2022-12-18T18:23:11.506Z,15.49
2022-12-18T18:25:38.640Z,15.50
2022-12-18T18:28:05.881Z,15.52
2022-12-18T18:30:32.938Z,15.45
2022-12-18T18:33:00.048Z,15.48
2022-12-18T18:35:52.799Z,15.47
2022-12-18T18:38:14.214Z,15.45
2022-12-18T18:40:41.288Z,15.43
2022-12-18T18:43:09.718Z,15.43
2022-12-18T18:45:37.964Z,15.41
2022-12-18T18:48:05.643Z,15.49
2022-12-18T18:50:33.228Z,15.55
2022-12-18T18:53:00.350Z,15.50
2022-12-18T18:55:27.451Z,15.51
2022-12-18T18:57:54.645Z,15.54
2022-12-18T19:00:21.853Z,15.57
2022-12-18T19:02:49.118Z,15.53
2022-12-18T19:05:16.401Z,15.54
2022-12-18T19:07:43.513Z,15.55
2022-12-18T19:10:11.224Z,15.54
2022-12-18T19:12:57.265Z,15.55
2022-12-18T19:15:26.703Z,15.56
2022-12-18T19:17:54.003Z,15.54
2022-12-18T19:20:21.354Z,15.56
2022-12-18T19:22:49.712Z,15.59
2022-12-18T19:25:25.699Z,15.58
2022-12-18T19:28:03.685Z,15.57
2022-12-18T19:30:32.808Z,15.55
2022-12-18T19:33:09.714Z,15.56
2022-12-18T19:35:47.201Z,15.53
2022-12-18T19:38:14.469Z,15.58
2022-12-18T19:40:43.112Z,15.55
2022-12-18T19:43:10.370Z,15.55
2022-12-18T19:45:37.736Z,15.54
2022-12-18T19:48:04.960Z,15.54
2022-12-18T19:50:32.167Z,15.54
2022-12-18T19:53:01.175Z,15.55
2022-12-18T19:55:28.507Z,15.57
2022-12-18T19:57:55.629Z,15.53
2022-12-18T20:00:22.749Z,15.56
2022-12-18T20:02:49.969Z,15.58
2022-12-18T20:05:17.258Z,15.60
2022-12-18T20:07:45.510Z,15.57
2022-12-18T20:10:12.619Z,15.57
2022-12-18T20:12:42.232Z,15.58
2022-12-18T20:15:09.336Z,15.53
2022-12-18T20:17:36.452Z,15.53
2022-12-18T20:20:03.815Z,15.57
2022-12-18T20:22:30.922Z,15.49
2022-12-18T20:24:58.461Z,15.53
2022-12-18T20:27:25.569Z,15.57
2022-12-18T20:29:52.674Z,15.52
2022-12-18T20:32:19.868Z,15.52
2022-12-18T20:34:47.187Z,15.52
2022-12-18T20:37:14.461Z,15.49
2022-12-18T20:39:42.615Z,15.49
2022-12-18T20:42:10.211Z,15.52
2022-12-18T20:44:37.341Z,15.52
2022-12-18T20:47:08.660Z,15.44
2022-12-18T20:49:36.016Z,15.49
2022-12-18T20:52:06.050Z,15.52
2022-12-18T20:54:33.152Z,15.55
2022-12-18T20:57:00.297Z,15.58
2022-12-18T20:59:27.512Z,15.59
2022-12-18T21:01:54.856Z,15.62
2022-12-18T21:04:22.158Z,15.63
2022-12-18T21:06:54.162Z,15.61
2022-12-18T21:09:27.789Z,15.65
2022-12-18T21:12:17.514Z,15.70
2022-12-18T21:14:44.729Z,15.74
2022-12-18T21:17:12.018Z,15.74
2022-12-18T21:19:39.470Z,15.73
2022-12-18T21:22:07.030Z,15.74
2022-12-18T21:24:34.172Z,15.71
2022-12-18T21:27:01.908Z,15.71
2022-12-18T21:29:29.194Z,15.71
2022-12-18T21:31:56.339Z,15.63
2022-12-18T21:34:23.599Z,15.58
2022-12-18T21:36:50.779Z,15.58
2022-12-18T21:39:17.901Z,15.61
2022-12-18T21:42:05.955Z,15.63
2022-12-18T21:44:42.088Z,15.60
2022-12-18T21:47:21.359Z,15.70
2022-12-18T21:49:49.636Z,15.70
2022-12-18T21:52:17.329Z,15.66
2022-12-18T21:54:44.418Z,15.69
2022-12-18T21:57:13.424Z,15.68
2022-12-18T21:59:40.545Z,15.65
2022-12-18T22:02:08.069Z,15.64
2022-12-18T22:04:35.325Z,15.60
2022-12-18T22:07:02.483Z,15.55
2022-12-18T22:09:29.591Z,15.58
2022-12-18T22:11:56.809Z,15.59
2022-12-18T22:14:23.879Z,15.60
2022-12-18T22:16:50.982Z,15.53
2022-12-18T22:19:19.130Z,15.52
2022-12-18T22:21:46.553Z,15.57
2022-12-18T22:24:13.722Z,15.55
2022-12-18T22:26:40.807Z,15.54
2022-12-18T22:29:26.688Z,15.50
2022-12-18T22:31:53.780Z,15.49
2022-12-18T22:34:23.192Z,15.51
2022-12-18T22:36:50.761Z,15.51
2022-12-18T22:39:17.853Z,15.51
2022-12-18T22:41:45.094Z,15.48
2022-12-18T22:44:12.157Z,15.48
2022-12-18T22:46:42.337Z,15.47
2022-12-18T22:49:09.463Z,15.43
2022-12-18T22:51:36.567Z,15.43
2022-12-18T22:54:03.641Z,15.43
2022-12-18T22:56:30.739Z,15.41
2022-12-18T22:58:57.854Z,15.40
2022-12-18T23:01:25.597Z,15.39
2022-12-18T23:03:52.833Z,15.42
2022-12-18T23:06:19.917Z,15.41
2022-12-18T23:08:49.504Z,15.45
2022-12-18T23:11:20.110Z,15.38
2022-12-18T23:13:47.610Z,15.41
2022-12-18T23:16:14.755Z,15.39
2022-12-18T23:18:41.944Z,15.26
2022-12-18T23:21:09.006Z,15.25
2022-12-18T23:23:37.250Z,15.26
2022-12-18T23:26:04.381Z,15.22
2022-12-18T23:28:31.447Z,15.22
2022-12-18T23:31:02.183Z,15.22
2022-12-18T23:33:31.893Z,15.21
2022-12-18T23:35:59.744Z,15.18
2022-12-18T23:38:26.806Z,15.19
2022-12-18T23:40:55.698Z,15.18
2022-12-18T23:43:23.890Z,15.13
2022-12-18T23:45:55.532Z,15.11
2022-12-18T23:48:22.991Z,15.09
2022-12-18T23:50:50.101Z,15.08
2022-12-18T23:53:17.161Z,15.09
2022-12-18T23:55:44.239Z,15.07
2022-12-18T23:58:11.294Z,15.06
